METAR Data
IDs: Format: Raw Decoded Include TAF

Data at: 0228 UTC 19 Oct 2021

KXNA 190153Z 15006KT 10SM CLR 13/08 A3008 RMK AO2 SLP182 T01330078
KXNA 190053Z 16006KT 10SM CLR 13/08 A3007 RMK AO2 SLP181 T01330078
KXNA 182353Z 17007KT 10SM CLR 16/07 A3006 RMK AO2 SLP177 T01560072 10222 20156 55008
KXNA 182253Z 17009KT 10SM CLR 19/07 A3006 RMK AO2 SLP174 T01940067
KXNA 182153Z 18009KT 10SM CLR 21/06 A3007 RMK AO2 SLP177 T02110056
KXNA 182053Z 19009KT 10SM CLR 22/06 A3008 RMK AO2 SLP183 T02170056 56028
KXNA 181953Z 19009KT 10SM CLR 22/07 A3010 RMK AO2 SLP186 T02220067
KXNA 181853Z 20011G21KT 10SM CLR 22/06 A3014 RMK AO2 SLP199 T02170061
KXNA 181753Z 20010KT 10SM CLR 21/07 A3017 RMK AO2 SLP211 T02110067 10211 20061 58015
KXNA 181653Z VRB06KT 10SM CLR 20/07 A3019 RMK AO2 SLP219 T02000067
KXNA 181553Z 19007KT 10SM CLR 17/08 A3021 RMK AO2 SLP225 T01720078
KXNA 181453Z 18006KT 10SM CLR 14/08 A3022 RMK AO2 SLP228 T01390083 52012
KXNA 181353Z 00000KT 10SM CLR 10/07 A3021 RMK AO2 SLP228 T01000072
KXNA 181253Z 00000KT 10SM CLR 07/06 A3019 RMK AO2 SLP221 T00670056
KXNA 181153Z 00000KT 10SM CLR 07/06 A3018 RMK AO2 SLP218 T00670056 10094 20061 53004
KXNA 181053Z 00000KT 10SM CLR 07/05 A3018 RMK AO2 SLP215 T00670050
KXNA 180953Z AUTO 00000KT 10SM CLR 07/06 A3017 RMK AO2 SLP211 T00720056
KXNA 180853Z AUTO 00000KT 10SM CLR 07/06 A3017 RMK AO2 SLP210 T00720061 58006
KXNA 180753Z AUTO 00000KT 10SM CLR 07/06 A3018 RMK AO2 SLP215 T00720056
KXNA 180653Z AUTO 00000KT 10SM CLR 08/06 A3019 RMK AO2 SLP215 T00780061
KXNA 180553Z AUTO 00000KT 10SM CLR 09/06 A3019 RMK AO2 SLP216 T00940061 10156 20089 402220050 58007
KXNA 180453Z AUTO 00000KT 10SM CLR 10/06 A3020 RMK AO2 SLP220 T01000061
KXNA 180353Z AUTO 19005KT 10SM CLR 12/06 A3020 RMK AO2 SLP223 T01170061
KXNA 180253Z 19004KT 10SM CLR 11/07 A3021 RMK AO2 SLP227 T01110072 53003
KXNA 180153Z 00000KT 10SM CLR 13/07 A3020 RMK AO2 SLP227 T01280072
KXNA 180053Z 20004KT 10SM CLR 13/07 A3020 RMK AO2 SLP227 T01330072
KXNA 172353Z AUTO 20003KT 10SM CLR 16/07 A3020 RMK AO2 SLP226 T01560067 10222 20156 56009
KXNA 172253Z 24005KT 10SM CLR 20/05 A3021 RMK AO2 SLP226 T02000050
KXNA 172153Z 23007KT 10SM CLR 21/04 A3022 RMK AO2 SLP228 T02110044
KXNA 172053Z 26008KT 10SM CLR 22/04 A3023 RMK AO2 SLP231 T02220039 56021
KXNA 171953Z 23005KT 10SM CLR 22/04 A3024 RMK AO2 SLP235 T02170039
KXNA 171853Z 24007KT 10SM CLR 22/03 A3026 RMK AO2 SLP242 T02170033
KXNA 171753Z 22006KT 10SM CLR 21/06 A3029 RMK AO2 SLP254 T02060056 10206 20050 58014
KXNA 171653Z 24005KT 8SM CLR 19/06 A3032 RMK AO2 SLP262 T01890056
KXNA 171553Z 23006KT 6SM HZ CLR 17/06 A3033 RMK AO2 SLP267 T01670056
KXNA 171453Z 18003KT 10SM CLR 12/08 A3034 RMK AO2 SLP272 T01220078 51008